createdAt,value
2022-10-11T00:00:13.774Z,101717.00
2022-10-11T00:02:40.663Z,101714.66
2022-10-11T00:05:08.857Z,101710.25
2022-10-11T00:07:38.212Z,101708.78
2022-10-11T00:10:07.782Z,101703.63
2022-10-11T00:12:35.500Z,101704.00
2022-10-11T00:15:03.639Z,101705.97
2022-10-11T00:17:32.166Z,101702.56
2022-10-11T00:19:59.029Z,101704.47
2022-10-11T00:22:25.785Z,101708.41
2022-10-11T00:24:53.163Z,101701.53
2022-10-11T00:27:20.078Z,101698.50
2022-10-11T00:29:46.916Z,101699.84
2022-10-11T00:32:13.805Z,101712.78
2022-10-11T00:34:40.557Z,101714.97
2022-10-11T00:37:07.394Z,101710.81
2022-10-11T00:39:34.217Z,101710.28
2022-10-11T00:42:01.093Z,101711.50
2022-10-11T00:44:31.945Z,101707.34
2022-10-11T00:47:04.016Z,101707.56
2022-10-11T00:49:59.968Z,101703.53
2022-10-11T00:52:32.946Z,101702.44
2022-10-11T00:55:06.146Z,101705.25
2022-10-11T00:57:37.717Z,101690.44
2022-10-11T01:00:11.978Z,101697.78
2022-10-11T01:02:40.521Z,101703.25
2022-10-11T01:05:28.656Z,101694.34
2022-10-11T01:07:59.165Z,101695.56
2022-10-11T01:10:27.235Z,101693.91
2022-10-11T01:13:29.704Z,101696.69
2022-10-11T01:16:32.713Z,101686.41
2022-10-11T01:19:45.181Z,101698.38
2022-10-11T01:22:55.690Z,101694.97
2022-10-11T01:25:55.650Z,101698.22
2022-10-11T01:28:39.734Z,101694.06
2022-10-11T01:31:41.759Z,101695.13
2022-10-11T01:34:33.521Z,101691.19
2022-10-11T01:37:19.911Z,101689.69
2022-10-11T01:39:59.903Z,101699.72
2022-10-11T01:42:29.220Z,101696.50
2022-10-11T01:44:59.012Z,101700.38
2022-10-11T01:47:27.062Z,101701.69
2022-10-11T01:50:01.036Z,101700.00
2022-10-11T01:52:33.577Z,101706.44
2022-10-11T01:55:30.248Z,101709.59
2022-10-11T01:58:08.172Z,101705.41
2022-10-11T02:01:06.884Z,101703.28
2022-10-11T02:03:47.706Z,101696.81
2022-10-11T02:06:51.653Z,101698.03
2022-10-11T02:09:38.810Z,101689.09
2022-10-11T02:12:13.468Z,101697.28
2022-10-11T02:14:46.099Z,101698.47
2022-10-11T02:17:18.835Z,101696.75
2022-10-11T02:19:50.892Z,101697.72
2022-10-11T02:22:28.521Z,101684.50
2022-10-11T02:25:00.569Z,101686.44
2022-10-11T02:27:33.755Z,101694.50
2022-10-11T02:30:04.892Z,101689.34
2022-10-11T02:32:33.400Z,101683.00
2022-10-11T02:35:01.871Z,101691.06
2022-10-11T02:38:13.544Z,101690.53
2022-10-11T02:40:45.231Z,101684.22
2022-10-11T02:43:24.249Z,101684.22
2022-10-11T02:45:58.936Z,101683.47
2022-10-11T02:48:28.880Z,101691.53
2022-10-11T02:50:57.585Z,101693.47
2022-10-11T02:53:25.929Z,101695.16
2022-10-11T02:55:55.620Z,101694.41
2022-10-11T02:58:23.940Z,101683.03
2022-10-11T03:00:51.421Z,101682.06
2022-10-11T03:03:18.295Z,101684.97
2022-10-11T03:05:45.078Z,101686.81
2022-10-11T03:08:15.579Z,101685.31
2022-10-11T03:10:43.408Z,101688.97
2022-10-11T03:13:11.432Z,101687.25
2022-10-11T03:15:39.621Z,101699.06
2022-10-11T03:18:06.439Z,101692.09
2022-10-11T03:20:33.902Z,101684.03
2022-10-11T03:23:00.710Z,101686.06
2022-10-11T03:25:27.521Z,101682.63
2022-10-11T03:27:54.314Z,101686.38
2022-10-11T03:30:21.105Z,101685.63
2022-10-11T03:32:48.028Z,101684.03
2022-10-11T03:35:15.495Z,101683.19
2022-10-11T03:37:42.291Z,101681.56
2022-10-11T03:40:10.291Z,101681.91
2022-10-11T03:42:37.927Z,101687.47
2022-10-11T03:45:09.950Z,101684.28
2022-10-11T03:47:39.297Z,101688.88
2022-10-11T03:50:08.490Z,101673.72
2022-10-11T03:52:36.151Z,101677.50
2022-10-11T03:55:03.301Z,101683.94
2022-10-11T03:57:30.707Z,101689.53
2022-10-11T03:59:57.965Z,101689.63
2022-10-11T04:02:25.091Z,101690.59
2022-10-11T04:04:51.914Z,101691.66
2022-10-11T04:07:18.826Z,101688.34
2022-10-11T04:09:46.202Z,101695.72
2022-10-11T04:12:12.977Z,101694.97
2022-10-11T04:14:40.659Z,101695.19
2022-10-11T04:17:07.828Z,101698.00
2022-10-11T04:19:37.294Z,101709.78
2022-10-11T04:22:07.925Z,101703.47
2022-10-11T04:24:34.954Z,101709.03
2022-10-11T04:27:01.853Z,101719.00
2022-10-11T04:29:32.334Z,101712.97
2022-10-11T04:31:59.990Z,101714.06
2022-10-11T04:34:26.889Z,101725.00
2022-10-11T04:36:53.667Z,101726.91
2022-10-11T04:39:20.906Z,101733.47
2022-10-11T04:41:48.112Z,101729.03
2022-10-11T04:44:15.014Z,101726.50
2022-10-11T04:46:41.949Z,101732.03
2022-10-11T04:49:08.989Z,101731.50
2022-10-11T04:51:35.812Z,101729.03
2022-10-11T04:54:02.886Z,101732.66
2022-10-11T04:56:30.768Z,101730.06
2022-10-11T04:58:57.600Z,101739.09
2022-10-11T05:01:24.593Z,101746.16
2022-10-11T05:03:51.389Z,101737.47
2022-10-11T05:06:18.562Z,101738.53
2022-10-11T05:08:45.525Z,101746.66
2022-10-11T05:11:16.323Z,101741.22
2022-10-11T05:13:44.596Z,101739.69
2022-10-11T05:16:12.802Z,101739.69
2022-10-11T05:18:40.126Z,101744.31
2022-10-11T05:21:28.859Z,101735.50
2022-10-11T05:23:57.155Z,101738.19
2022-10-11T05:26:27.772Z,101745.16
2022-10-11T05:28:55.408Z,101744.22
2022-10-11T05:31:22.834Z,101746.00
2022-10-11T05:33:50.109Z,101734.53
2022-10-11T05:36:17.081Z,101744.41
2022-10-11T05:38:44.871Z,101748.78
2022-10-11T05:41:15.431Z,101741.06
2022-10-11T05:43:44.811Z,101740.22
2022-10-11T05:46:13.021Z,101737.53
2022-10-11T05:48:40.425Z,101740.31
2022-10-11T05:51:10.566Z,101738.56
2022-10-11T05:53:38.707Z,101745.84
2022-10-11T05:56:14.280Z,101747.78
2022-10-11T05:58:41.025Z,101746.16
2022-10-11T06:01:08.035Z,101749.78
2022-10-11T06:03:34.858Z,101744.53
2022-10-11T06:06:05.601Z,101752.69
2022-10-11T06:08:33.812Z,101750.97
2022-10-11T06:11:14.171Z,101743.97
2022-10-11T06:13:42.242Z,101751.13
2022-10-11T06:16:09.735Z,101747.50
2022-10-11T06:18:37.136Z,101748.59
2022-10-11T06:21:04.523Z,101748.59
2022-10-11T06:23:31.409Z,101754.81
2022-10-11T06:26:09.053Z,101751.38
2022-10-11T06:28:37.269Z,101760.47
2022-10-11T06:31:06.080Z,101764.84
2022-10-11T06:33:34.172Z,101754.13
2022-10-11T06:36:06.347Z,101763.91
2022-10-11T06:38:33.384Z,101760.34
2022-10-11T06:41:38.894Z,101763.03
2022-10-11T06:44:07.198Z,101759.31
2022-10-11T06:46:35.548Z,101759.31
2022-10-11T06:49:02.819Z,101758.34
2022-10-11T06:51:30.370Z,101760.06
2022-10-11T06:54:00.015Z,101759.09
2022-10-11T06:56:29.080Z,101761.78
2022-10-11T06:58:57.723Z,101771.47
2022-10-11T07:01:26.251Z,101758.81
2022-10-11T07:03:55.357Z,101761.41
2022-10-11T07:06:28.171Z,101759.25
2022-10-11T07:08:55.541Z,101759.06
2022-10-11T07:11:27.712Z,101767.78
2022-10-11T07:14:08.115Z,101766.69
2022-10-11T07:16:36.975Z,101767.28
2022-10-11T07:19:06.231Z,101760.75
2022-10-11T07:21:35.034Z,101773.75
2022-10-11T07:24:02.778Z,101765.41
2022-10-11T07:26:36.665Z,101765.09
2022-10-11T07:29:04.577Z,101761.97
2022-10-11T07:31:31.955Z,101773.94
2022-10-11T07:33:59.180Z,101764.56
2022-10-11T07:36:26.345Z,101761.47
2022-10-11T07:38:53.180Z,101767.81
2022-10-11T07:41:20.742Z,101773.25
2022-10-11T07:43:49.963Z,101766.06
2022-10-11T07:46:18.516Z,101777.63
2022-10-11T07:48:45.273Z,101774.22
2022-10-11T07:51:18.061Z,101772.34
2022-10-11T07:53:47.822Z,101770.78
2022-10-11T07:56:19.010Z,101769.19
2022-10-11T07:58:55.303Z,101785.34
2022-10-11T08:01:22.649Z,101775.53
2022-10-11T08:03:50.535Z,101777.94
2022-10-11T08:06:23.256Z,101782.47
2022-10-11T08:08:50.490Z,101780.97
2022-10-11T08:11:30.069Z,101777.16
2022-10-11T08:13:58.716Z,101783.03
2022-10-11T08:16:25.989Z,101788.16
2022-10-11T08:19:20.008Z,101790.09
2022-10-11T08:21:47.058Z,101792.31
2022-10-11T08:24:14.312Z,101798.63
2022-10-11T08:26:41.466Z,101794.44
2022-10-11T08:29:08.472Z,101799.31
2022-10-11T08:31:35.679Z,101797.84
2022-10-11T08:34:02.911Z,101796.31
2022-10-11T08:36:29.751Z,101790.19
2022-10-11T08:38:57.190Z,101801.44
2022-10-11T08:41:39.838Z,101808.47
2022-10-11T08:45:05.460Z,101796.50
2022-10-11T08:47:37.900Z,101797.25
2022-10-11T08:50:08.151Z,101792.56
2022-10-11T08:52:37.919Z,101787.03
2022-10-11T08:55:10.805Z,101787.63
2022-10-11T08:57:39.714Z,101790.78
2022-10-11T09:00:15.141Z,101788.81
2022-10-11T09:03:16.036Z,101781.28
2022-10-11T09:05:54.497Z,101794.53
2022-10-11T09:08:33.731Z,101798.81
2022-10-11T09:11:37.857Z,101793.41
2022-10-11T09:14:14.142Z,101788.00
2022-10-11T09:16:59.183Z,101787.72
2022-10-11T09:20:00.327Z,101781.59
2022-10-11T09:22:44.516Z,101793.13
2022-10-11T09:25:13.974Z,101795.56
2022-10-11T09:28:10.660Z,101782.06
2022-10-11T09:30:48.083Z,101787.47
2022-10-11T09:33:20.605Z,101790.88
2022-10-11T09:35:51.538Z,101786.19
2022-10-11T09:38:29.284Z,101785.22
2022-10-11T09:41:12.045Z,101786.06
2022-10-11T09:43:39.709Z,101774.97
2022-10-11T09:46:36.800Z,101774.13
2022-10-11T09:49:09.338Z,101778.41
2022-10-11T09:51:37.109Z,101772.47
2022-10-11T09:54:06.615Z,101774.75
2022-10-11T09:56:41.465Z,101771.78
2022-10-11T09:59:36.098Z,101772.50
2022-10-11T10:02:15.594Z,101772.06
2022-10-11T10:05:26.695Z,101769.97
2022-10-11T10:08:11.897Z,101768.41
2022-10-11T10:11:08.107Z,101779.41
2022-10-11T10:13:45.460Z,101775.16
2022-10-11T10:16:38.715Z,101764.66
2022-10-11T10:19:21.636Z,101767.63
2022-10-11T10:21:52.600Z,101769.81
2022-10-11T10:24:28.291Z,101763.25
2022-10-11T10:27:19.044Z,101764.69
2022-10-11T10:30:08.391Z,101775.81
2022-10-11T10:32:57.273Z,101760.72
2022-10-11T10:35:40.825Z,101759.00
2022-10-11T10:38:07.701Z,101758.16
2022-10-11T10:40:44.105Z,101754.56
2022-10-11T10:43:20.312Z,101763.88
2022-10-11T10:46:03.716Z,101762.31
2022-10-11T10:52:06.116Z,101764.84
2022-10-11T10:54:58.839Z,101758.09
2022-10-11T10:57:37.483Z,101753.66
2022-10-11T11:00:20.997Z,101754.19
2022-10-11T11:02:56.182Z,101756.72
2022-10-11T11:05:48.506Z,101757.66
2022-10-11T11:08:42.480Z,101759.88
2022-10-11T11:11:15.549Z,101747.81
2022-10-11T11:14:11.873Z,101749.47
2022-10-11T11:16:44.897Z,101743.66
2022-10-11T11:19:49.729Z,101751.91
2022-10-11T11:22:40.109Z,101750.13
2022-10-11T11:25:47.209Z,101748.22
2022-10-11T11:28:32.431Z,101745.41
2022-10-11T11:31:43.428Z,101746.19
2022-10-11T11:34:22.802Z,101742.06
2022-10-11T11:37:01.028Z,101736.53
2022-10-11T11:39:44.101Z,101738.63
2022-10-11T11:42:22.461Z,101735.97
2022-10-11T11:44:51.673Z,101736.88
2022-10-11T11:47:40.683Z,101726.19
2022-10-11T11:50:22.575Z,101721.19
2022-10-11T11:52:58.556Z,101722.09
2022-10-11T11:55:36.602Z,101729.97
2022-10-11T11:58:44.689Z,101711.31
2022-10-11T12:01:42.867Z,101709.69
2022-10-11T12:04:26.497Z,101711.97
2022-10-11T12:07:16.032Z,101702.28
2022-10-11T12:09:50.772Z,101714.03
2022-10-11T12:12:37.198Z,101704.69
2022-10-11T12:15:10.229Z,101701.47
2022-10-11T12:17:55.368Z,101707.97
2022-10-11T12:20:38.861Z,101700.97
2022-10-11T12:23:28.573Z,101696.38
2022-10-11T12:26:29.607Z,101691.25
2022-10-11T12:29:43.742Z,101690.59
2022-10-11T12:32:11.735Z,101684.94
2022-10-11T12:34:44.541Z,101687.47
2022-10-11T12:37:20.464Z,101686.47
2022-10-11T12:39:55.380Z,101674.19
2022-10-11T12:42:35.368Z,101675.34
2022-10-11T12:45:11.236Z,101676.91
2022-10-11T12:48:41.039Z,101674.88
2022-10-11T12:51:43.680Z,101673.16
2022-10-11T12:54:38.377Z,101667.06
2022-10-11T12:57:09.674Z,101666.53
2022-10-11T12:59:44.789Z,101664.34
2022-10-11T13:02:44.710Z,101648.53
2022-10-11T13:05:27.876Z,101649.38
2022-10-11T13:07:58.483Z,101645.94
2022-10-11T13:10:44.733Z,101648.97
2022-10-11T13:13:27.542Z,101643.53
2022-10-11T13:15:57.885Z,101640.25
2022-10-11T13:18:27.341Z,101639.03
2022-10-11T13:20:54.817Z,101630.19
2022-10-11T13:23:37.801Z,101632.59
2022-10-11T13:26:04.951Z,101624.72
2022-10-11T13:28:36.260Z,101624.44
2022-10-11T13:31:04.530Z,101619.81
2022-10-11T13:33:35.739Z,101622.16
2022-10-11T13:36:07.177Z,101620.31
2022-10-11T13:38:37.158Z,101613.31
2022-10-11T13:41:08.677Z,101611.47
2022-10-11T13:43:36.805Z,101612.63
2022-10-11T13:46:07.179Z,101597.44
2022-10-11T13:48:41.351Z,101608.56
2022-10-11T13:51:29.708Z,101607.00
2022-10-11T13:54:11.727Z,101607.50
2022-10-11T13:56:51.770Z,101601.16
2022-10-11T13:59:25.307Z,101605.28
2022-10-11T14:02:00.286Z,101598.47
2022-10-11T14:04:29.876Z,101596.81
2022-10-11T14:07:02.744Z,101599.50
2022-10-11T14:09:35.043Z,101595.44
2022-10-11T14:12:39.753Z,101595.47
2022-10-11T14:15:26.395Z,101592.06
2022-10-11T14:17:53.341Z,101592.91
2022-10-11T14:20:24.185Z,101582.34
2022-10-11T14:22:53.022Z,101571.78
2022-10-11T14:25:21.274Z,101585.94
2022-10-11T14:27:49.264Z,101582.19
2022-10-11T14:30:26.234Z,101578.97
2022-10-11T14:32:58.041Z,101578.66
2022-10-11T14:35:28.263Z,101566.56
2022-10-11T14:37:55.656Z,101567.22
2022-10-11T14:40:26.557Z,101558.06
2022-10-11T14:42:53.770Z,101571.00
2022-10-11T14:45:24.233Z,101575.78
2022-10-11T14:47:51.226Z,101567.59
2022-10-11T14:50:44.146Z,101567.25
2022-10-11T14:53:11.937Z,101569.66
2022-10-11T14:55:40.779Z,101568.78
2022-10-11T14:58:09.441Z,101560.94
2022-10-11T15:00:37.308Z,101562.09
2022-10-11T15:03:07.323Z,101571.31
2022-10-11T15:05:34.637Z,101558.38
2022-10-11T15:08:06.484Z,101552.94
2022-10-11T15:10:40.606Z,101557.69
2022-10-11T15:13:08.662Z,101548.19
2022-10-11T15:15:37.801Z,101552.94
2022-10-11T15:18:07.771Z,101548.19
2022-10-11T15:20:42.476Z,101547.16
2022-10-11T15:23:10.487Z,101547.31
2022-10-11T15:25:39.482Z,101540.31
2022-10-11T15:28:08.056Z,101538.81
2022-10-11T15:30:41.387Z,101527.75
2022-10-11T15:33:09.492Z,101532.31
2022-10-11T15:35:36.330Z,101526.34
2022-10-11T15:38:03.387Z,101530.13
2022-10-11T15:40:37.309Z,101531.28
2022-10-11T15:43:04.570Z,101522.28
2022-10-11T15:45:31.662Z,101517.19
2022-10-11T15:47:59.352Z,101516.00
2022-10-11T15:50:34.679Z,101520.03
2022-10-11T15:53:14.275Z,101506.94
2022-10-11T15:55:47.268Z,101509.31
2022-10-11T15:58:26.521Z,101513.72
2022-10-11T16:00:56.867Z,101508.94
2022-10-11T16:03:27.315Z,101503.50
2022-10-11T16:05:55.277Z,101502.44
2022-10-11T16:08:23.098Z,101497.69
2022-10-11T16:10:50.600Z,101492.91
2022-10-11T16:13:18.680Z,101497.16
2022-10-11T16:15:46.106Z,101492.19
2022-10-11T16:18:16.410Z,101495.41
2022-10-11T16:20:47.079Z,101485.00
2022-10-11T16:23:14.733Z,101485.34
2022-10-11T16:25:42.035Z,101485.66
2022-10-11T16:28:09.969Z,101485.31
2022-10-11T16:30:46.002Z,101480.53
2022-10-11T16:33:13.069Z,101483.91
2022-10-11T16:35:43.052Z,101486.25
2022-10-11T16:38:10.041Z,101478.75
2022-10-11T16:40:42.251Z,101470.22
2022-10-11T16:43:09.872Z,101477.16
2022-10-11T16:45:37.169Z,101465.19
2022-10-11T16:48:05.520Z,101477.53
2022-10-11T16:50:38.336Z,101472.91
2022-10-11T16:53:06.285Z,101490.69
2022-10-11T16:55:33.502Z,101478.75
2022-10-11T16:58:00.348Z,101480.25
2022-10-11T17:00:27.261Z,101484.44
2022-10-11T17:02:54.151Z,101476.41
2022-10-11T17:05:20.952Z,101481.63
2022-10-11T17:07:47.740Z,101482.28
2022-10-11T17:10:14.503Z,101478.47
2022-10-11T17:12:41.411Z,101480.94
2022-10-11T17:15:11.336Z,101479.16
2022-10-11T17:17:38.199Z,101478.25
2022-10-11T17:20:05.938Z,101475.44
2022-10-11T17:22:32.768Z,101472.66
2022-10-11T17:25:01.812Z,101468.97
2022-10-11T17:27:28.811Z,101479.59
2022-10-11T17:29:55.994Z,101469.66
2022-10-11T17:32:22.835Z,101476.69
2022-10-11T17:34:49.717Z,101465.78
2022-10-11T17:37:16.696Z,101470.03
2022-10-11T17:39:43.492Z,101473.38
2022-10-11T17:42:10.314Z,101461.56
2022-10-11T17:44:37.264Z,101466.75
2022-10-11T17:47:04.334Z,101462.91
2022-10-11T17:49:31.227Z,101462.66
2022-10-11T17:51:58.317Z,101459.69
2022-10-11T17:54:26.335Z,101454.84
2022-10-11T17:56:54.625Z,101452.88
2022-10-11T17:59:22.439Z,101454.31
2022-10-11T18:01:50.586Z,101453.94
2022-10-11T18:04:20.192Z,101451.97
2022-10-11T18:06:49.723Z,101447.97
2022-10-11T18:09:19.375Z,101451.25
2022-10-11T18:11:47.626Z,101450.84
2022-10-11T18:14:15.192Z,101449.59
2022-10-11T18:16:43.038Z,101446.59
2022-10-11T18:19:13.101Z,101451.56
2022-10-11T18:21:40.726Z,101450.28
2022-10-11T18:24:17.180Z,101451.00
2022-10-11T18:26:46.248Z,101447.72
2022-10-11T18:29:13.355Z,101449.91
2022-10-11T18:31:41.272Z,101435.09
2022-10-11T18:34:10.953Z,101432.81
2022-10-11T18:36:39.099Z,101441.22
2022-10-11T18:39:09.874Z,101430.69
2022-10-11T18:41:39.978Z,101439.94
2022-10-11T18:44:09.385Z,101438.34
2022-10-11T18:46:36.740Z,101434.22
2022-10-11T18:49:03.924Z,101443.31
2022-10-11T18:51:34.938Z,101442.59
2022-10-11T18:54:02.665Z,101445.63
2022-10-11T18:56:31.243Z,101445.03
2022-10-11T18:58:58.993Z,101440.63
2022-10-11T19:01:34.000Z,101443.75
2022-10-11T19:04:01.831Z,101441.63
2022-10-11T19:06:44.064Z,101441.75
2022-10-11T19:09:22.564Z,101437.31
2022-10-11T19:11:52.278Z,101447.56
2022-10-11T19:14:22.488Z,101443.16
2022-10-11T19:16:51.764Z,101440.59
2022-10-11T19:19:24.544Z,101441.72
2022-10-11T19:21:52.273Z,101453.75
2022-10-11T19:24:22.172Z,101446.94
2022-10-11T19:26:49.709Z,101443.66
2022-10-11T19:29:19.961Z,101445.78
2022-10-11T19:31:54.150Z,101446.19
2022-10-11T19:34:22.124Z,101441.06
2022-10-11T19:36:50.348Z,101432.66
2022-10-11T19:39:18.757Z,101446.56
2022-10-11T19:41:46.332Z,101442.56
2022-10-11T19:44:14.770Z,101441.41
2022-10-11T19:46:51.392Z,101441.81
2022-10-11T19:49:21.616Z,101437.69
2022-10-11T19:51:48.473Z,101443.34
2022-10-11T19:54:16.196Z,101439.34
2022-10-11T19:56:44.719Z,101440.47
2022-10-11T19:59:12.884Z,101430.81
2022-10-11T20:01:41.539Z,101427.66
2022-10-11T20:04:27.475Z,101438.69
2022-10-11T20:06:58.809Z,101429.16
2022-10-11T20:09:30.638Z,101428.47
2022-10-11T20:11:58.801Z,101421.63
2022-10-11T20:14:25.862Z,101422.75
2022-10-11T20:16:53.089Z,101418.47
2022-10-11T20:19:24.888Z,101420.44
2022-10-11T20:21:54.937Z,101422.41
2022-10-11T20:24:21.852Z,101426.38
2022-10-11T20:26:48.641Z,101426.63
2022-10-11T20:29:15.466Z,101421.38
2022-10-11T20:31:42.999Z,101426.91
2022-10-11T20:34:10.525Z,101420.81
2022-10-11T20:36:38.080Z,101424.47
2022-10-11T20:39:06.607Z,101425.44
2022-10-11T20:41:40.154Z,101419.50
2022-10-11T20:44:09.229Z,101423.03
2022-10-11T20:46:39.629Z,101425.97
2022-10-11T20:49:10.720Z,101418.91
2022-10-11T20:51:41.570Z,101421.72
2022-10-11T20:54:09.272Z,101425.38
2022-10-11T20:56:36.261Z,101418.19
2022-10-11T20:59:04.117Z,101420.88
2022-10-11T21:01:38.499Z,101425.50
2022-10-11T21:04:08.043Z,101422.81
2022-10-11T21:06:35.013Z,101417.41
2022-10-11T21:09:02.408Z,101422.97
2022-10-11T21:11:33.946Z,101421.38
2022-10-11T21:14:05.055Z,101413.44
2022-10-11T21:16:33.741Z,101418.97
2022-10-11T21:19:02.325Z,101408.31
2022-10-11T21:21:30.240Z,101410.00
2022-10-11T21:24:02.132Z,101407.47
2022-10-11T21:26:30.929Z,101406.56
2022-10-11T21:28:59.484Z,101396.69
2022-10-11T21:31:32.762Z,101390.69
2022-10-11T21:34:00.716Z,101394.34
2022-10-11T21:36:27.617Z,101391.78
2022-10-11T21:38:55.073Z,101391.06
2022-10-11T21:41:25.767Z,101386.69
2022-10-11T21:43:53.609Z,101389.63
2022-10-11T21:46:47.492Z,101388.91
2022-10-11T21:49:14.080Z,101388.91
2022-10-11T21:51:41.028Z,101391.59
2022-10-11T21:54:08.116Z,101389.88
2022-10-11T21:56:35.226Z,101384.47
2022-10-11T21:59:02.015Z,101383.63
2022-10-11T22:01:29.106Z,101379.25
2022-10-11T22:03:59.148Z,101377.53
2022-10-11T22:06:26.381Z,101374.09
2022-10-11T22:08:53.340Z,101369.69
2022-10-11T22:11:20.182Z,101372.53
2022-10-11T22:13:47.079Z,101371.06
2022-10-11T22:16:14.373Z,101361.28
2022-10-11T22:18:42.717Z,101368.66
2022-10-11T22:21:23.186Z,101365.34
2022-10-11T22:23:53.692Z,101361.81
2022-10-11T22:26:27.046Z,101361.81
2022-10-11T22:28:53.989Z,101370.03
2022-10-11T22:31:22.256Z,101360.22
2022-10-11T22:33:53.898Z,101364.03
2022-10-11T22:36:20.767Z,101363.78
2022-10-11T22:38:47.725Z,101363.50
2022-10-11T22:41:14.988Z,101360.56
2022-10-11T22:43:41.925Z,101356.50
2022-10-11T22:46:09.177Z,101357.09
2022-10-11T22:48:36.491Z,101361.34
2022-10-11T22:51:03.830Z,101360.22
2022-10-11T22:53:30.956Z,101362.53
2022-10-11T22:55:57.854Z,101365.13
2022-10-11T22:58:24.701Z,101366.81
2022-10-11T23:00:51.833Z,101365.84
2022-10-11T23:03:19.503Z,101361.28
2022-10-11T23:05:58.948Z,101360.56
2022-10-11T23:08:26.114Z,101353.19
2022-10-11T23:10:53.331Z,101356.91
2022-10-11T23:13:20.556Z,101354.03
2022-10-11T23:15:47.494Z,101346.69
2022-10-11T23:18:16.883Z,101343.25
2022-10-11T23:20:44.326Z,101344.13
2022-10-11T23:23:11.146Z,101341.56
2022-10-11T23:25:38.007Z,101332.75
2022-10-11T23:28:05.113Z,101333.16
2022-10-11T23:30:31.907Z,101335.84
2022-10-11T23:32:58.940Z,101322.78
2022-10-11T23:35:25.818Z,101324.63
2022-10-11T23:37:55.360Z,101325.00
2022-10-11T23:40:22.293Z,101319.88
2022-10-11T23:42:49.205Z,101318.19
2022-10-11T23:45:16.734Z,101315.88
2022-10-11T23:47:43.555Z,101314.28
2022-10-11T23:50:10.546Z,101309.19
2022-10-11T23:52:37.750Z,101306.75
2022-10-11T23:55:05.023Z,101311.28
2022-10-11T23:57:32.000Z,101304.59
2022-10-11T23:59:58.793Z,101303.88
